New Virginia, Iowa
Current Conditions -  °F | °C
As of 7:55 AM on Thursday 30 Oct 2014 (Local Time) from KI75 Reporting Station
Overcast Overcast  
Wind Chill: 44°   Ceiling: 10000
Heat Index: 44°   Visibility: 10mi
Dew Point: 37°   Wind: 3mph
Humidity: 76%   Direction: 70°ENE
Pressure: 30.02"   Gusts: NA
Location:  41.18°N, 93.73°W
Report Text: KI75 301255Z AUTO 07003KT 10SM OVC100 07/03 A3002 RMK AO2 T00650026
Loading
Personal Weather Stations






























Interactive Weather Map
Tropical Storm Tracking
New forecast layout! Learn more

10-Day Weather Forecast

Advertisements
Track Severe Weather on mobile